^^
Meteo Knjazevac Station Historical Data
Daily Summary for May 22, 2022 Units:  English    Metric   Both
Daily Weekly Monthly Yearly Custom
  High: Low: Average:
Temperature: 80.2 °F 55.6 °F 68.4 °F
Dew Point: 60.5 °F 48.3 °F 55.4 °F
Humidity: 81% 45% 65%
Wind Speed: 12mph 0mph 3.6mph
Wind Gust: 22mph - -
Wind- - WSW
Pressure: 30.03 in 29.93 in -
Precipitation: 0.00 in    
Historical Graphs
 
 
Tabular Data for May 22, 2022
Time Temperature Dew Point Pressure Wind Wind Speed Wind Gust Humidity Rainfall Rate (Hourly) solar Conditions
00:00 68.7 °F 58.5 °F 30.02 in North 1 mph 4 mph 70% 0.00 in 0 W/m2
00:10 68.7 °F 59.3 °F 30.02 in ESE 2 mph 4 mph 72% 0.00 in 0 W/m2
00:20 68.2 °F 58.8 °F 30.02 in North 2 mph 4 mph 72% 0.00 in 0 W/m2
00:30 67.9 °F 58.9 °F 30.02 in NNW 3 mph 6 mph 73% 0.00 in 0 W/m2
00:40 67.6 °F 58.7 °F 30.01 in NNE 3 mph 6 mph 73% 0.00 in 0 W/m2
00:50 67.4 °F 58.8 °F 30.01 in NNE 2 mph 5 mph 74% 0.00 in 0 W/m2
01:00 67.2 °F 58.6 °F 30.01 in NE 2 mph 6 mph 74% 0.00 in 0 W/m2
01:10 66.7 °F 58.5 °F 30.01 in WNW 1 mph 3 mph 75% 0.00 in 0 W/m2
01:20 66.5 °F 58.3 °F 30.01 in Calm   3 mph 75% 0.00 in 0 W/m2
01:30 66.1 °F 58 °F 30.01 in North 1 mph 2 mph 75% 0.00 in 0 W/m2
01:40 65.8 °F 58.4 °F 30.01 in NE 1 mph 3 mph 77% 0.00 in 0 W/m2
01:50 65.5 °F 58.1 °F 30.01 in Calm   2 mph 77% 0.00 in 0 W/m2
02:00 65 °F 58 °F 30.00 in WNW 1 mph 3 mph 78% 0.00 in 0 W/m2
02:10 64.8 °F 57.7 °F 30.00 in NE 2 mph 3 mph 78% 0.00 in 0 W/m2
02:20 64.8 °F 57.7 °F 30.00 in North 1 mph 3 mph 78% 0.00 in 0 W/m2
02:30 64.4 °F 57.4 °F 30.00 in Calm   2 mph 78% 0.00 in 0 W/m2
02:40 64 °F 57 °F 30.00 in WSW 1 mph 3 mph 78% 0.00 in 0 W/m2
02:50 63.6 °F 57 °F 30.00 in Calm   3 mph 79% 0.00 in 0 W/m2
03:00 63.3 °F 56.7 °F 30.00 in Calm   2 mph 79% 0.00 in 0 W/m2
03:10 63 °F 56.3 °F 30.00 in Calm   2 mph 79% 0.00 in 0 W/m2
03:20 62.6 °F 56 °F 30.00 in WNW 1 mph 2 mph 79% 0.00 in 0 W/m2
03:30 62.2 °F 55.6 °F 30.00 in NNW 1 mph 4 mph 79% 0.00 in 0 W/m2
03:40 61.9 °F 54.6 °F 30.00 in Calm   3 mph 77% 0.00 in 0 W/m2
03:50 61.3 °F 54.7 °F 30.00 in WNW 1 mph 2 mph 79% 0.00 in 0 W/m2
04:00 61 °F 54.1 °F 30.00 in WNW 1 mph 2 mph 78% 0.00 in 0 W/m2
04:10 60.4 °F 53.9 °F 30.00 in Calm   2 mph 79% 0.00 in 0 W/m2
04:20 60.1 °F 53.5 °F 30.00 in Calm   2 mph 79% 0.00 in 0 W/m2
04:30 59.6 °F 53.1 °F 30.00 in Calm   2 mph 79% 0.00 in 0 W/m2
04:40 59.3 °F 52.4 °F 30.00 in Calm   1 mph 78% 0.00 in 0 W/m2
04:50 59 °F 52.5 °F 30.00 in North 1 mph 2 mph 79% 0.00 in 0 W/m2
05:00 58.7 °F 52.2 °F 30.01 in NNW 1 mph 2 mph 79% 0.00 in 1 W/m2
05:10 58.4 °F 51.9 °F 30.01 in West 1 mph 2 mph 79% 0.00 in 3 W/m2
05:20 58.1 °F 51.3 °F 30.01 in West 2 mph 4 mph 78% 0.00 in 5 W/m2
05:30 58.1 °F 51.3 °F 30.01 in NNW 2 mph 4 mph 78% 0.00 in 6 W/m2
05:40 58.4 °F 51.2 °F 30.02 in North 1 mph 3 mph 77% 0.00 in 9 W/m2
05:50 58.5 °F 51.6 °F 30.02 in WNW 1 mph 4 mph 78% 0.00 in 13 W/m2
06:00 58.6 °F 51.8 °F 30.02 in Calm   2 mph 78% 0.00 in 22 W/m2
06:10 58.8 °F 52 °F 30.02 in ENE 1 mph 4 mph 78% 0.00 in 27 W/m2
06:20 59.2 °F 52.3 °F 30.02 in Calm   3 mph 78% 0.00 in 47 W/m2
06:30 59.5 °F 52.7 °F 30.02 in North 1 mph 2 mph 78% 0.00 in 63 W/m2
06:40 60.1 °F 53.2 °F 30.02 in West 2 mph 3 mph 78% 0.00 in 62 W/m2
06:50 60.1 °F 53.2 °F 30.02 in Calm   3 mph 78% 0.00 in 39 W/m2
07:00 60.3 °F 53 °F 30.02 in Calm   2 mph 77% 0.00 in 21 W/m2
07:10 60.4 °F 53.5 °F 30.02 in Calm   2 mph 78% 0.00 in 24 W/m2
07:20 60.6 °F 54.1 °F 30.02 in Calm   3 mph 79% 0.00 in 27 W/m2
07:30 60.6 °F 54.4 °F 30.03 in NW 1 mph 4 mph 80% 0.00 in 39 W/m2
07:40 60.8 °F 54.9 °F 30.03 in NNE 2 mph 4 mph 81% 0.00 in 68 W/m2
07:50 60.7 °F 54.5 °F 30.03 in West 1 mph 4 mph 80% 0.00 in 99 W/m2
08:00 61.1 °F 54.9 °F 30.03 in Calm   3 mph 80% 0.00 in 113 W/m2
08:10 61.5 °F 54.9 °F 30.03 in Calm   2 mph 79% 0.00 in 226 W/m2
08:20 62.3 °F 56.1 °F 30.03 in SSE 2 mph 4 mph 80% 0.00 in 218 W/m2
08:30 63.1 °F 56.8 °F 30.03 in SW 2 mph 3 mph 80% 0.00 in 302 W/m2
08:40 64.9 °F 58.2 °F 30.02 in SW 2 mph 5 mph 79% 0.00 in 600 W/m2
08:50 66.9 °F 59.5 °F 30.03 in SW 5 mph 8 mph 77% 0.00 in 507 W/m2
09:00 68.6 °F 60 °F 30.03 in SW 6 mph 9 mph 74% 0.00 in 532 W/m2
09:10 69.6 °F 59.4 °F 30.03 in SW 7 mph 11 mph 70% 0.00 in 669 W/m2
09:20 70.4 °F 59.4 °F 30.02 in SW 5 mph 10 mph 68% 0.00 in 710 W/m2
09:30 71.7 °F 59.7 °F 30.02 in SW 5 mph 10 mph 66% 0.00 in 728 W/m2
09:40 73 °F 59.6 °F 30.02 in SW 6 mph 9 mph 63% 0.00 in 758 W/m2
09:50 73.2 °F 59.9 °F 30.01 in SW 7 mph 10 mph 63% 0.00 in 396 W/m2
10:00 72.8 °F 60.3 °F 30.01 in SW 7 mph 9 mph 65% 0.00 in 226 W/m2
10:10 72.3 °F 59.9 °F 30.01 in SW 7 mph 10 mph 65% 0.00 in 316 W/m2
10:20 72.9 °F 59.5 °F 30.01 in SW 5 mph 12 mph 63% 0.00 in 841 W/m2
10:30 74.6 °F 59.8 °F 30.00 in SSW 2 mph 8 mph 60% 0.00 in 662 W/m2
10:40 75.6 °F 60.2 °F 30.00 in SSW 5 mph 9 mph 59% 0.00 in 428 W/m2
10:50 75.6 °F 58.8 °F 30.00 in WSW 6 mph 11 mph 56% 0.00 in 679 W/m2
11:00 75.7 °F 57.4 °F 30.00 in WSW 7 mph 13 mph 53% 0.00 in 275 W/m2
11:10 75.1 °F 56.8 °F 30.00 in West 8 mph 13 mph 53% 0.00 in 266 W/m2
11:20 74.5 °F 56.7 °F 30.00 in West 8 mph 17 mph 54% 0.00 in 269 W/m2
11:30 73.9 °F 56.8 °F 30.00 in West 6 mph 19 mph 55% 0.00 in 417 W/m2
11:40 74.1 °F 56.4 °F 30.00 in West 8 mph 15 mph 54% 0.00 in 407 W/m2
11:50 74.1 °F 56.4 °F 29.99 in WNW 6 mph 16 mph 54% 0.00 in 388 W/m2
12:00 74.3 °F 56.1 °F 29.99 in WSW 6 mph 14 mph 53% 0.00 in 346 W/m2
12:10 74.5 °F 56.2 °F 29.99 in WSW 6 mph 12 mph 53% 0.00 in 267 W/m2
12:20 74.5 °F 55.7 °F 29.99 in West 8 mph 14 mph 52% 0.00 in 357 W/m2
12:30 74.3 °F 56.1 °F 29.99 in West 8 mph 15 mph 53% 0.00 in 304 W/m2
12:40 73.9 °F 55.7 °F 29.99 in West 7 mph 17 mph 53% 0.00 in 249 W/m2
12:50 73.6 °F 54.9 °F 29.98 in West 10 mph 18 mph 52% 0.00 in 245 W/m2
13:00 73.6 °F 55.4 °F 29.98 in WSW 10 mph 20 mph 53% 0.00 in 238 W/m2
13:10 73.3 °F 55.6 °F 29.98 in WSW 8 mph 20 mph 54% 0.00 in 199 W/m2
13:20 73.3 °F 56.2 °F 29.98 in WSW 7 mph 12 mph 55% 0.00 in 210 W/m2
13:30 73.2 °F 55.6 °F 29.98 in WSW 7 mph 14 mph 54% 0.00 in 274 W/m2
13:40 73.6 °F 55.9 °F 29.97 in WSW 7 mph 12 mph 54% 0.00 in 557 W/m2
13:50 74.1 °F 56.9 °F 29.97 in WSW 8 mph 14 mph 55% 0.00 in 397 W/m2
14:00 74.3 °F 57.1 °F 29.97 in WSW 6 mph 12 mph 55% 0.00 in 417 W/m2
14:10 74.8 °F 57.5 °F 29.97 in West 7 mph 14 mph 55% 0.00 in 409 W/m2
14:20 75.4 °F 58.1 °F 29.96 in WSW 7 mph 14 mph 55% 0.00 in 534 W/m2
14:30 75.6 °F 59.3 °F 29.96 in WSW 6 mph 10 mph 57% 0.00 in 457 W/m2
14:40 75.9 °F 60.5 °F 29.95 in SW 3 mph 13 mph 59% 0.00 in 822 W/m2
14:50 77.5 °F 59.5 °F 29.95 in West 9 mph 17 mph 54% 0.00 in 802 W/m2
15:00 78.1 °F 59.6 °F 29.95 in WSW 10 mph 20 mph 53% 0.00 in 781 W/m2
15:10 78.4 °F 59.8 °F 29.94 in WSW 8 mph 21 mph 53% 0.00 in 758 W/m2
15:20 78.3 °F 59.2 °F 29.94 in WSW 8 mph 19 mph 52% 0.00 in 247 W/m2
15:30 79.1 °F 58.3 °F 29.94 in West 10 mph 17 mph 49% 0.00 in 710 W/m2
15:40 79.5 °F 58.1 °F 29.94 in West 12 mph 22 mph 48% 0.00 in 685 W/m2
15:50 79.9 °F 58.4 °F 29.94 in WSW 9 mph 18 mph 48% 0.00 in 659 W/m2
16:00 80.2 °F 58.2 °F 29.93 in West 7 mph 16 mph 47% 0.00 in 631 W/m2
16:10 79.9 °F 56.7 °F 29.94 in WNW 9 mph 19 mph 45% 0.00 in 603 W/m2
16:20 80.1 °F 58 °F 29.94 in WNW 6 mph 17 mph 47% 0.00 in 575 W/m2
16:30 80.1 °F 58 °F 29.94 in NW 6 mph 14 mph 47% 0.00 in 532 W/m2
16:40 79.9 °F 58.4 °F 29.93 in WNW 6 mph 17 mph 48% 0.00 in 516 W/m2
16:50 80.2 °F 58.2 °F 29.93 in NW 8 mph 17 mph 47% 0.00 in 486 W/m2
17:00 79.8 °F 57.1 °F 29.93 in WNW 8 mph 15 mph 46% 0.00 in 282 W/m2
17:10 79.3 °F 57.4 °F 29.93 in NW 6 mph 13 mph 47% 0.00 in 386 W/m2
17:20 79.3 °F 57.4 °F 29.93 in NNW 3 mph 11 mph 47% 0.00 in 182 W/m2
17:30 78.3 °F 56.4 °F 29.93 in NW 5 mph 14 mph 47% 0.00 in 104 W/m2
17:40 77.4 °F 55.6 °F 29.93 in NW 7 mph 13 mph 47% 0.00 in 249 W/m2
17:50 77 °F 55.8 °F 29.93 in NW 5 mph 11 mph 48% 0.00 in 158 W/m2
18:00 76.4 °F 55.8 °F 29.93 in NW 3 mph 13 mph 49% 0.00 in 223 W/m2
18:10 76.3 °F 55.7 °F 29.94 in NNW 5 mph 12 mph 49% 0.00 in 193 W/m2
18:20 76.5 °F 55.3 °F 29.93 in NNW 6 mph 12 mph 48% 0.00 in 175 W/m2
18:30 76.3 °F 55.1 °F 29.93 in NNW 7 mph 15 mph 48% 0.00 in 154 W/m2
18:40 76.1 °F 54.4 °F 29.93 in NNW 7 mph 12 mph 47% 0.00 in 125 W/m2
18:50 75.7 °F 54.1 °F 29.94 in NNW 6 mph 9 mph 47% 0.00 in 100 W/m2
19:00 75.4 °F 54.3 °F 29.94 in NNW 5 mph 10 mph 48% 0.00 in 74 W/m2
19:10 74.8 °F 53.8 °F 29.94 in NNW 5 mph 10 mph 48% 0.00 in 54 W/m2
19:20 74.3 °F 53.3 °F 29.93 in North 5 mph 9 mph 48% 0.00 in 38 W/m2
19:30 73.6 °F 53.3 °F 29.93 in North 3 mph 7 mph 49% 0.00 in 25 W/m2
19:40 72.9 °F 52.6 °F 29.93 in NNW 2 mph 7 mph 49% 0.00 in 14 W/m2
19:50 72.2 °F 52.5 °F 29.94 in NNW 3 mph 5 mph 50% 0.00 in 6 W/m2
20:00 71.4 °F 51.8 °F 29.94 in NNW 3 mph 7 mph 50% 0.00 in 0 W/m2
20:10 71.1 °F 52.6 °F 29.94 in Calm   6 mph 52% 0.00 in 0 W/m2
20:20 69.8 °F 52.9 °F 29.94 in SSE 1 mph 5 mph 55% 0.00 in 0 W/m2
20:30 68.8 °F 53.4 °F 29.94 in SW 1 mph 3 mph 58% 0.00 in 0 W/m2
20:40 67.9 °F 52.5 °F 29.94 in West 2 mph 3 mph 58% 0.00 in 0 W/m2
20:50 66.9 °F 52.1 °F 29.95 in WSW 2 mph 5 mph 59% 0.00 in 0 W/m2
21:00 65.8 °F 52.5 °F 29.95 in WSW 1 mph 3 mph 62% 0.00 in 0 W/m2
21:10 64.8 °F 52.4 °F 29.95 in West 3 mph 5 mph 64% 0.00 in 0 W/m2
21:20 63.9 °F 51.9 °F 29.95 in West 2 mph 5 mph 65% 0.00 in 0 W/m2
21:30 63.3 °F 52.2 °F 29.96 in West 2 mph 6 mph 67% 0.00 in 0 W/m2
21:40 62.6 °F 51.9 °F 29.96 in West 1 mph 5 mph 68% 0.00 in 0 W/m2
21:50 62.1 °F 51.4 °F 29.96 in West 1 mph 2 mph 68% 0.00 in 0 W/m2
22:00 61.4 °F 51.1 °F 29.96 in SW 1 mph 4 mph 69% 0.00 in 0 W/m2
22:10 60.8 °F 51 °F 29.96 in Calm   2 mph 70% 0.00 in 0 W/m2
22:20 60.1 °F 50.3 °F 29.96 in West 1 mph 2 mph 70% 0.00 in 0 W/m2
22:30 59.5 °F 50.5 °F 29.96 in Calm   2 mph 72% 0.00 in 0 W/m2
22:40 58.8 °F 50.1 °F 29.96 in Calm   2 mph 73% 0.00 in 0 W/m2
22:50 58.1 °F 49.5 °F 29.96 in North 1 mph 2 mph 73% 0.00 in 0 W/m2
23:00 57.8 °F 49.5 °F 29.96 in West 1 mph 3 mph 74% 0.00 in 0 W/m2
23:10 57.2 °F 49 °F 29.96 in West 1 mph 2 mph 74% 0.00 in 0 W/m2
23:20 56.7 °F 48.9 °F 29.97 in NW 1 mph 2 mph 75% 0.00 in 0 W/m2
23:30 56.1 °F 48.3 °F 29.97 in WNW 1 mph 3 mph 75% 0.00 in 0 W/m2
23:40 55.8 °F 48.7 °F 29.97 in NW 1 mph 2 mph 77% 0.00 in 0 W/m2
23:50 55.6 °F 48.5 °F 29.97 in NW 1 mph 3 mph 77% 0.00 in 0 W/m2
Knjazevac, Serbia
Compliments of Weather Underground - 2 mb